| Date | Temp | Humidity | Rainfall | Dew Point | Wind Direction | Wind Speed | Wind Pressure | Condition | Visibility |
|---|---|---|---|---|---|---|---|---|---|
| 2025-06-07 10:02:35 | 28 | 80 | 24 | 180 | 13.3 | 1013 | Distant showers | 15 KM | |
| 2025-06-07 08:58:33 | 27 | 86 | 24 | 180 | 9.5 | 1013 | Rain | 10 km | |
| 2025-06-07 08:00:43 | 26 | 90 | 24 | 210 | 7.6 | 1012 | Rain | 10 KM | |
| 2025-06-07 07:00:58 | 25 | 93 | 24 | 190 | 13.3 | 1011 | Rain | 10 KM | |
| 2025-06-07 07:00:33 | 25 | 93 | 190 | 1 | Showers | ||||
| 2025-06-07 06:04:38 | 25 | 93 | 23 | 210 | 3.8 | 1011 | Showers | 10 KM | |
| 2025-06-07 05:00:08 | 25 | 92 | 23 | 220 | 3.8 | 1009 | Showers | 8 KM | |
| 2025-06-07 03:59:05 | 26 | 91 | 24 | 230 | 7.6 | 1010 | Partly Cloudy (Night) | 10 KM | |
| 2025-06-07 03:04:23 | 26 | 90 | 24 | 160 | 5.7 | 1009 | Partly Cloudy (Night) | 10 KM | |
| 2025-06-07 02:00:37 | 26 | 89 | 0.00 | 24 | 170 | 5.7 | 1010 | Partly Cloudy (Night) | 10 km |
| 2025-06-07 01:00:26 | 26 | 90 | 0.00 | 24 | 170 | 7.6 | 1011 | Partly Cloudy (Night) | 10 Km |
| 2025-06-07 00:02:44 | 26 | 91 | 0.00 | 25 | 170 | 3.8 | 1011 | Partly Cloudy (Night) | 10 KM |
| 2025-06-06 22:59:15 | 26 | 89 | 0.00 | 25 | 160 | 5.7 | 1012 | Partly Cloudy (Night) | 10 km |
| 2025-06-06 22:00:01 | 26 | 90 | 0.00 | 25 | 140 | 3.8 | 1012 | Partly Cloudy (Night) | 10 km |
| 2025-06-06 20:56:29 | 27 | 88 | 24 | 110 | 3.8 | 1012 | Lightning | 10 KM | |
| 2025-06-06 19:58:47 | 27 | 85 | 24 | 210 | 3.8 | 1011 | Lightning | 10 KM | |
| 2025-06-06 18:58:35 | 27 | 80 | 24 | 310 | 3.8 | 1010 | Lightning | 10 KM | |
| 2025-06-06 17:59:02 | 27 | 86 | 24 | 280 | 26.6 | 1009 | Distant showers | 10 KM | |
| 2025-06-06 17:04:14 | 29 | 77 | 24 | 300 | 28.5 | 1009 | Distant showers | 15 KM | |
| 2025-06-06 15:57:57 | 31 | 68 | 0.00 | 25 | 330 | 22.8 | 1009 | Distant showers | 10 KM |
| 2025-06-06 15:01:49 | 31 | 66 | 0.00 | 24 | 320 | 20.9 | 1008 | Distant showers | 15 KM |
| 2025-06-06 14:01:09 | 34 | 60 | 0.00 | 25 | 290 | 7.6 | 1009 | Distant showers | 15 KM |
| 2025-06-06 13:02:33 | 32 | 63 | 0.00 | 22 | 290 | 13.3 | 1009 | Distant showers | 15 KM |
| 2025-06-06 11:58:22 | 33 | 54 | 22 | 240 | 5.7 | 1010 | Partly Cloudy (Day) | 20 KM | |
| 2025-06-06 11:00:49 | 32 | 58 | 23 | 140 | 9.5 | 1011 | Partly Cloudy (Day) | 20 KM |